createdAt,value
2018-06-29T00:00:00.977Z,48.50
2018-06-29T00:02:32.209Z,48.60
2018-06-29T00:05:04.544Z,48.50
2018-06-29T00:07:35.957Z,49.50
2018-06-29T00:12:40.903Z,49.40
2018-06-29T00:15:12.308Z,49.60
2018-06-29T00:17:43.749Z,49.70
2018-06-29T00:20:16.631Z,49.90
2018-06-29T00:22:48.254Z,50.00
2018-06-29T00:25:19.644Z,50.10
2018-06-29T00:27:51.844Z,50.10
2018-06-29T00:30:23.252Z,50.30
2018-06-29T00:32:54.590Z,50.10
2018-06-29T00:35:26.280Z,50.30
2018-06-29T00:37:58.023Z,50.00
2018-06-29T00:40:30.122Z,50.00
2018-06-29T00:43:01.761Z,49.70
2018-06-29T00:45:33.315Z,49.40
2018-06-29T00:48:05.391Z,49.30
2018-06-29T00:50:36.726Z,48.70
2018-06-29T00:53:08.061Z,48.60
2018-06-29T00:55:39.538Z,48.50
2018-06-29T00:58:10.880Z,48.50
2018-06-29T01:00:42.102Z,48.00
2018-06-29T01:03:13.683Z,48.70
2018-06-29T01:05:45.858Z,47.60
2018-06-29T01:08:17.095Z,47.50
2018-06-29T01:10:48.586Z,47.20
2018-06-29T01:13:19.717Z,47.00
2018-06-29T01:15:51.337Z,46.90
2018-06-29T01:18:22.422Z,46.70
2018-06-29T01:20:53.717Z,46.80
2018-06-29T01:23:25.169Z,46.90
2018-06-29T01:25:56.672Z,46.60
2018-06-29T01:28:28.973Z,46.50
2018-06-29T01:31:00.807Z,46.30
2018-06-29T01:33:31.681Z,46.10
2018-06-29T01:36:02.765Z,45.90
2018-06-29T01:38:33.850Z,45.70
2018-06-29T01:41:04.901Z,45.60
2018-06-29T01:43:35.952Z,45.30
2018-06-29T01:46:06.982Z,45.10
2018-06-29T01:48:39.079Z,44.90
2018-06-29T01:51:12.168Z,44.90
2018-06-29T01:53:44.003Z,44.90
2018-06-29T01:56:14.933Z,45.20
2018-06-29T01:58:45.924Z,45.10
2018-06-29T02:01:18.588Z,45.20
2018-06-29T02:03:49.714Z,45.30
2018-06-29T02:06:20.777Z,45.60
2018-06-29T02:08:51.804Z,45.40
2018-06-29T02:11:23.898Z,45.70
2018-06-29T02:13:54.973Z,45.50
2018-06-29T02:16:25.802Z,45.70
2018-06-29T02:18:57.521Z,45.80
2018-06-29T02:21:28.602Z,45.90
2018-06-29T02:23:59.465Z,46.10
2018-06-29T02:29:01.298Z,46.30
2018-06-29T02:31:32.380Z,46.30
2018-06-29T02:34:03.237Z,46.40
2018-06-29T02:36:35.154Z,46.60
2018-06-29T02:39:09.588Z,46.70
2018-06-29T02:41:40.779Z,46.80
2018-06-29T02:44:11.697Z,46.90
2018-06-29T02:46:42.863Z,47.00
2018-06-29T02:49:13.965Z,47.20
2018-06-29T02:51:45.006Z,47.40
2018-06-29T02:54:16.305Z,47.50
2018-06-29T02:56:47.426Z,47.60
2018-06-29T02:59:18.529Z,47.40
2018-06-29T03:01:49.633Z,47.50
2018-06-29T03:04:20.657Z,47.10
2018-06-29T03:06:51.626Z,47.00
2018-06-29T03:09:22.513Z,47.30
2018-06-29T03:11:53.781Z,46.90
2018-06-29T03:14:25.600Z,46.70
2018-06-29T03:16:56.694Z,46.70
2018-06-29T03:19:27.769Z,46.40
2018-06-29T03:21:58.980Z,46.30
2018-06-29T03:24:30.969Z,46.40
2018-06-29T03:27:02.753Z,46.40
2018-06-29T03:29:34.325Z,46.60
2018-06-29T03:32:05.530Z,46.60
2018-06-29T03:37:08.549Z,46.20
2018-06-29T03:42:09.895Z,45.90
2018-06-29T03:44:40.936Z,45.90
2018-06-29T03:47:11.833Z,45.70
2018-06-29T03:49:43.850Z,45.70
2018-06-29T03:52:15.043Z,45.60
2018-06-29T03:54:45.949Z,45.60
2018-06-29T03:59:48.545Z,45.70
2018-06-29T04:04:49.695Z,45.60
2018-06-29T04:07:20.874Z,45.60
2018-06-29T04:12:22.250Z,45.60
2018-06-29T04:14:53.380Z,45.70
2018-06-29T04:17:24.166Z,45.60
2018-06-29T04:19:55.614Z,46.20
2018-06-29T04:22:27.120Z,45.40
2018-06-29T04:25:02.142Z,45.60
2018-06-29T04:27:33.655Z,46.10
2018-06-29T04:30:05.845Z,45.30
2018-06-29T04:32:37.322Z,45.10
2018-06-29T04:35:09.389Z,45.10
2018-06-29T04:37:40.325Z,45.20
2018-06-29T04:40:11.927Z,45.20
2018-06-29T04:42:42.863Z,45.10
2018-06-29T04:45:13.850Z,45.00
2018-06-29T04:47:44.781Z,44.90
2018-06-29T04:50:15.818Z,45.00
2018-06-29T04:52:47.039Z,45.10
2018-06-29T04:55:17.897Z,45.20
2018-06-29T04:57:49.323Z,45.00
2018-06-29T05:00:21.416Z,44.90
2018-06-29T05:02:52.754Z,44.70
2018-06-29T05:05:23.902Z,44.70
2018-06-29T05:07:55.333Z,44.70
2018-06-29T05:10:26.652Z,44.50
2018-06-29T05:12:57.541Z,44.40
2018-06-29T05:15:28.429Z,44.40
2018-06-29T05:17:59.304Z,44.20
2018-06-29T05:20:30.159Z,44.00
2018-06-29T05:23:01.104Z,44.00
2018-06-29T05:25:31.975Z,44.20
2018-06-29T05:28:02.900Z,44.20
2018-06-29T05:30:33.827Z,44.30
2018-06-29T05:33:04.852Z,44.30
2018-06-29T05:38:06.489Z,44.40
2018-06-29T05:40:37.317Z,44.40
2018-06-29T05:43:09.232Z,44.40
2018-06-29T05:45:40.591Z,44.40
2018-06-29T05:48:11.597Z,44.40
2018-06-29T05:50:42.623Z,44.50
2018-06-29T05:53:13.513Z,44.70
2018-06-29T05:55:44.382Z,44.40
2018-06-29T05:58:15.344Z,45.10
2018-06-29T06:00:46.405Z,44.00
2018-06-29T06:03:17.406Z,43.90
2018-06-29T06:05:48.300Z,44.00
2018-06-29T06:08:19.198Z,43.90
2018-06-29T06:10:51.639Z,43.30
2018-06-29T06:13:22.634Z,43.10
2018-06-29T06:15:53.493Z,43.10
2018-06-29T06:18:24.413Z,43.10
2018-06-29T06:20:55.294Z,42.60
2018-06-29T06:23:26.600Z,42.20
2018-06-29T06:25:57.481Z,42.20
2018-06-29T06:28:28.378Z,42.30
2018-06-29T06:30:59.258Z,42.60
2018-06-29T06:33:32.813Z,41.80
2018-06-29T06:36:03.772Z,42.30
2018-06-29T06:41:05.226Z,43.20
2018-06-29T06:43:36.160Z,42.30
2018-06-29T06:46:07.097Z,42.10
2018-06-29T06:48:38.031Z,42.30
2018-06-29T06:53:39.006Z,41.70
2018-06-29T06:56:09.925Z,42.20
2018-06-29T06:58:40.839Z,41.80
2018-06-29T07:01:11.853Z,41.90
2018-06-29T07:03:42.771Z,42.10
2018-06-29T07:06:13.618Z,42.10
2018-06-29T07:08:45.133Z,41.60
2018-06-29T07:11:16.303Z,41.40
2018-06-29T07:13:47.478Z,41.40
2018-06-29T07:16:18.463Z,41.20
2018-06-29T07:18:49.409Z,41.00
2018-06-29T07:21:20.478Z,40.60
2018-06-29T07:23:53.835Z,40.70
2018-06-29T07:26:24.754Z,41.10
2018-06-29T07:28:55.970Z,40.90
2018-06-29T07:31:26.933Z,40.90
2018-06-29T07:33:57.867Z,40.90
2018-06-29T07:36:28.854Z,40.60
2018-06-29T07:39:00.399Z,40.30
2018-06-29T07:41:31.784Z,40.40
2018-06-29T07:44:03.042Z,40.40
2018-06-29T07:46:33.929Z,40.70
2018-06-29T07:49:04.799Z,40.30
2018-06-29T07:51:35.785Z,40.50
2018-06-29T07:54:07.644Z,40.40
2018-06-29T07:56:39.047Z,40.20
2018-06-29T07:59:10.325Z,40.80
2018-06-29T08:01:41.274Z,40.10
2018-06-29T08:06:42.699Z,40.30
2018-06-29T08:09:13.370Z,40.20
2018-06-29T08:11:44.059Z,40.10
2018-06-29T08:14:14.697Z,39.90
2018-06-29T08:16:45.453Z,39.40
2018-06-29T08:21:46.961Z,38.50
2018-06-29T08:24:17.607Z,38.90
2018-06-29T08:26:48.381Z,39.00
2018-06-29T08:29:19.009Z,39.00
2018-06-29T08:31:49.709Z,38.70
2018-06-29T08:34:20.930Z,38.40
2018-06-29T08:36:51.648Z,37.60
2018-06-29T08:39:23.057Z,37.70
2018-06-29T08:41:53.741Z,37.80
2018-06-29T08:44:24.531Z,37.60
2018-06-29T08:46:55.276Z,37.30
2018-06-29T08:49:26.011Z,37.00
2018-06-29T08:51:56.757Z,37.10
2018-06-29T08:54:29.381Z,37.20
2018-06-29T08:57:00.125Z,37.20
2018-06-29T08:59:31.267Z,36.80
2018-06-29T09:02:02.087Z,37.00
2018-06-29T09:04:32.977Z,37.00
2018-06-29T09:07:03.717Z,37.60
2018-06-29T09:09:34.688Z,36.90
2018-06-29T09:12:06.190Z,36.70
2018-06-29T09:14:37.094Z,36.40
2018-06-29T09:17:08.318Z,36.60
2018-06-29T09:19:40.410Z,36.50
2018-06-29T09:22:11.593Z,36.80
2018-06-29T09:27:14.414Z,36.70
2018-06-29T09:29:45.117Z,36.50
2018-06-29T09:32:15.949Z,36.50
2018-06-29T09:34:46.681Z,35.90
2018-06-29T09:37:17.369Z,36.50
2018-06-29T09:39:48.444Z,35.20
2018-06-29T09:42:19.166Z,35.10
2018-06-29T09:44:49.833Z,35.20
2018-06-29T09:47:21.009Z,35.30
2018-06-29T09:49:51.662Z,35.40
2018-06-29T09:52:22.583Z,35.50
2018-06-29T09:57:26.112Z,35.10
2018-06-29T09:59:56.801Z,34.90
2018-06-29T10:02:31.689Z,34.50
2018-06-29T10:04:58.255Z,34.70
2018-06-29T10:07:28.909Z,34.60
2018-06-29T10:10:00.067Z,34.20
2018-06-29T10:12:30.726Z,34.30
2018-06-29T10:15:01.551Z,34.00
2018-06-29T10:17:32.269Z,34.20
2018-06-29T10:20:03.090Z,34.40
2018-06-29T10:22:34.643Z,33.50
2018-06-29T10:25:05.901Z,33.30
2018-06-29T10:27:36.545Z,33.40
2018-06-29T10:30:08.245Z,33.20
2018-06-29T10:32:39.417Z,33.50
2018-06-29T10:35:10.631Z,33.70
2018-06-29T10:37:41.617Z,33.10
2018-06-29T10:40:12.375Z,32.80
2018-06-29T10:42:43.120Z,32.80
2018-06-29T10:45:13.840Z,32.50
2018-06-29T10:47:44.773Z,31.70
2018-06-29T10:50:15.705Z,31.60
2018-06-29T10:52:46.465Z,31.50
2018-06-29T10:55:17.129Z,31.50
2018-06-29T10:57:47.820Z,31.50
2018-06-29T11:00:18.462Z,31.50
2018-06-29T11:02:49.208Z,31.30
2018-06-29T11:05:19.946Z,30.90
2018-06-29T11:07:50.637Z,30.80
2018-06-29T11:10:21.441Z,30.90
2018-06-29T11:12:52.155Z,30.30
2018-06-29T11:17:53.382Z,30.60
2018-06-29T11:20:24.022Z,30.70
2018-06-29T11:22:54.774Z,30.20
2018-06-29T11:25:25.392Z,30.30
2018-06-29T11:27:56.645Z,30.30
2018-06-29T11:30:27.732Z,30.00
2018-06-29T11:32:58.408Z,29.90
2018-06-29T11:37:59.341Z,29.30
2018-06-29T11:40:30.012Z,29.20
2018-06-29T11:43:00.882Z,28.50
2018-06-29T11:45:31.541Z,29.00
2018-06-29T11:48:02.202Z,29.00
2018-06-29T11:50:32.905Z,29.30
2018-06-29T11:53:03.598Z,29.00
2018-06-29T11:55:34.229Z,29.30
2018-06-29T11:58:05.088Z,29.30
2018-06-29T12:00:35.764Z,28.80
2018-06-29T12:03:06.666Z,28.80
2018-06-29T12:05:37.351Z,28.90
2018-06-29T12:08:08.058Z,28.30
2018-06-29T12:10:38.806Z,28.30
2018-06-29T12:13:09.982Z,28.40
2018-06-29T12:15:40.648Z,28.40
2018-06-29T12:18:11.398Z,28.50
2018-06-29T12:20:42.351Z,27.60
2018-06-29T12:23:13.136Z,27.10
2018-06-29T12:25:43.813Z,27.50
2018-06-29T12:28:14.570Z,27.40
2018-06-29T12:30:45.393Z,27.30
2018-06-29T12:33:16.013Z,27.60
2018-06-29T12:35:46.718Z,28.00
2018-06-29T12:38:17.405Z,27.90
2018-06-29T12:40:48.277Z,27.50
2018-06-29T12:43:19.042Z,27.00
2018-06-29T12:45:49.754Z,27.00
2018-06-29T12:48:21.388Z,27.30
2018-06-29T12:50:52.448Z,26.70
2018-06-29T12:53:23.416Z,26.70
2018-06-29T12:55:54.900Z,26.70
2018-06-29T12:58:26.288Z,26.70
2018-06-29T13:00:57.353Z,26.60
2018-06-29T13:03:28.535Z,26.40
2018-06-29T13:05:59.446Z,26.40
2018-06-29T13:08:30.580Z,27.00
2018-06-29T13:11:01.435Z,27.30
2018-06-29T13:13:33.312Z,26.60
2018-06-29T13:16:04.225Z,26.50
2018-06-29T13:18:35.257Z,26.40
2018-06-29T13:21:06.313Z,26.50
2018-06-29T13:23:37.486Z,26.10
2018-06-29T13:26:10.234Z,26.20
2018-06-29T13:28:41.309Z,25.90
2018-06-29T13:31:12.449Z,26.00
2018-06-29T13:33:43.603Z,25.80
2018-06-29T13:36:15.475Z,26.00
2018-06-29T13:38:47.457Z,26.20
2018-06-29T13:41:19.209Z,26.00
2018-06-29T13:43:51.147Z,25.40
2018-06-29T13:46:22.937Z,25.60
2018-06-29T13:48:54.064Z,25.80
2018-06-29T13:51:25.085Z,25.70
2018-06-29T13:53:56.149Z,26.00
2018-06-29T13:56:27.806Z,26.20
2018-06-29T13:58:59.403Z,25.90
2018-06-29T14:01:30.574Z,25.50
2018-06-29T14:04:03.204Z,25.60
2018-06-29T14:06:34.490Z,25.80
2018-06-29T14:09:07.188Z,25.30
2018-06-29T14:11:39.334Z,25.30
2018-06-29T14:14:10.593Z,25.30
2018-06-29T14:16:41.853Z,25.00
2018-06-29T14:19:13.386Z,25.20
2018-06-29T14:21:44.825Z,25.00
2018-06-29T14:24:16.111Z,24.70
2018-06-29T14:26:47.225Z,25.00
2018-06-29T14:29:18.865Z,25.10
2018-06-29T14:31:51.486Z,25.00
2018-06-29T14:34:22.163Z,24.90
2018-06-29T14:36:52.901Z,24.80
2018-06-29T14:39:23.742Z,25.10
2018-06-29T14:41:54.425Z,25.20
2018-06-29T14:44:25.095Z,24.90
2018-06-29T14:46:55.777Z,24.90
2018-06-29T14:49:26.425Z,25.00
2018-06-29T14:51:57.439Z,24.30
2018-06-29T14:54:28.509Z,24.50
2018-06-29T14:56:59.169Z,24.10
2018-06-29T15:01:59.761Z,24.50
2018-06-29T15:04:30.498Z,24.60
2018-06-29T15:07:01.233Z,24.30
2018-06-29T15:09:31.961Z,23.90
2018-06-29T15:12:02.624Z,23.60
2018-06-29T15:14:33.321Z,23.50
2018-06-29T15:17:04.157Z,23.00
2018-06-29T15:19:34.792Z,23.10
2018-06-29T15:22:05.577Z,23.30
2018-06-29T15:24:36.303Z,23.30
2018-06-29T15:27:07.057Z,23.80
2018-06-29T15:29:37.702Z,23.90
2018-06-29T15:32:08.757Z,23.90
2018-06-29T15:34:39.888Z,24.20
2018-06-29T15:37:10.601Z,24.00
2018-06-29T15:39:41.378Z,24.30
2018-06-29T15:42:12.085Z,24.90
2018-06-29T15:44:43.247Z,24.10
2018-06-29T15:47:13.934Z,23.50
2018-06-29T15:49:45.793Z,23.40
2018-06-29T15:52:16.993Z,23.60
2018-06-29T15:54:48.092Z,23.60
2018-06-29T15:57:19.057Z,23.60
2018-06-29T15:59:51.311Z,23.60
2018-06-29T16:02:24.129Z,23.80
2018-06-29T16:04:57.299Z,23.80
2018-06-29T16:07:28.146Z,23.90
2018-06-29T16:09:58.814Z,23.70
2018-06-29T16:14:59.415Z,23.50
2018-06-29T16:17:30.149Z,23.30
2018-06-29T16:20:00.773Z,23.40
2018-06-29T16:25:02.012Z,23.90
2018-06-29T16:30:03.088Z,23.50
2018-06-29T16:32:33.916Z,23.40
2018-06-29T16:35:04.954Z,23.20
2018-06-29T16:37:35.606Z,22.80
2018-06-29T16:40:06.427Z,23.50
2018-06-29T16:42:37.570Z,23.00
2018-06-29T16:45:09.529Z,22.80
2018-06-29T16:47:41.321Z,23.10
2018-06-29T16:52:42.978Z,23.90
2018-06-29T16:55:15.797Z,24.00
2018-06-29T16:57:48.411Z,23.90
2018-06-29T17:00:19.702Z,24.00
2018-06-29T17:02:51.393Z,23.90
2018-06-29T17:05:23.017Z,24.20
2018-06-29T17:07:54.338Z,24.30
2018-06-29T17:10:25.653Z,24.10
2018-06-29T17:12:56.824Z,24.20
2018-06-29T17:15:29.002Z,24.00
2018-06-29T17:18:00.235Z,23.70
2018-06-29T17:20:31.385Z,23.80
2018-06-29T17:23:02.314Z,23.70
2018-06-29T17:25:33.503Z,23.70
2018-06-29T17:28:04.421Z,23.60
2018-06-29T17:30:36.440Z,23.30
2018-06-29T17:33:08.830Z,23.40
2018-06-29T17:35:41.557Z,23.60
2018-06-29T17:38:13.101Z,23.60
2018-06-29T17:40:44.046Z,23.40
2018-06-29T17:43:15.091Z,23.30
2018-06-29T17:45:46.785Z,23.00
2018-06-29T17:48:18.320Z,23.10
2018-06-29T17:50:49.942Z,22.70
2018-06-29T17:53:21.131Z,22.90
2018-06-29T17:55:52.614Z,23.20
2018-06-29T18:00:54.368Z,23.40
2018-06-29T18:03:27.150Z,23.30
2018-06-29T18:05:58.718Z,23.30
2018-06-29T18:08:29.647Z,23.30
2018-06-29T18:11:01.128Z,23.40
2018-06-29T18:13:32.784Z,23.40
2018-06-29T18:16:04.605Z,23.50
2018-06-29T18:18:36.301Z,23.50
2018-06-29T18:21:07.820Z,23.80
2018-06-29T18:23:39.426Z,23.90
2018-06-29T18:26:10.778Z,24.00
2018-06-29T18:28:41.926Z,24.30
2018-06-29T18:31:13.171Z,24.30
2018-06-29T18:33:45.789Z,24.20
2018-06-29T18:36:16.768Z,24.20
2018-06-29T18:41:20.359Z,24.20
2018-06-29T18:43:51.492Z,24.00
2018-06-29T18:46:22.478Z,24.20
2018-06-29T18:48:53.109Z,24.10
2018-06-29T18:51:23.912Z,24.50
2018-06-29T18:53:54.657Z,24.50
2018-06-29T18:56:25.759Z,24.60
2018-06-29T18:58:56.798Z,24.60
2018-06-29T19:01:27.615Z,24.80
2018-06-29T19:04:00.886Z,24.90
2018-06-29T19:06:33.403Z,25.00
2018-06-29T19:09:05.546Z,25.10
2018-06-29T19:11:36.432Z,25.30
2018-06-29T19:14:07.165Z,25.50
2018-06-29T19:16:38.212Z,25.70
2018-06-29T19:19:09.269Z,25.90
2018-06-29T19:21:40.473Z,26.00
2018-06-29T19:24:11.585Z,26.30
2018-06-29T19:26:42.709Z,26.40
2018-06-29T19:29:14.014Z,26.30
2018-06-29T19:31:44.918Z,26.30
2018-06-29T19:34:17.028Z,26.50
2018-06-29T19:39:18.029Z,26.80
2018-06-29T19:41:48.817Z,26.80
2018-06-29T19:44:19.529Z,26.80
2018-06-29T19:46:50.202Z,26.90
2018-06-29T19:49:21.018Z,27.00
2018-06-29T19:51:53.773Z,27.10
2018-06-29T19:54:26.029Z,27.30
2018-06-29T19:56:57.238Z,27.40
2018-06-29T19:59:29.192Z,27.60
2018-06-29T20:02:00.746Z,27.70
2018-06-29T20:04:31.901Z,28.00
2018-06-29T20:07:03.130Z,28.10
2018-06-29T20:09:34.787Z,28.40
2018-06-29T20:12:05.935Z,28.60
2018-06-29T20:14:38.963Z,29.00
2018-06-29T20:19:41.588Z,28.90
2018-06-29T20:22:12.909Z,29.10
2018-06-29T20:24:44.630Z,29.30
2018-06-29T20:27:15.874Z,29.40
2018-06-29T20:29:47.709Z,29.60
2018-06-29T20:32:18.965Z,29.80
2018-06-29T20:34:49.949Z,29.90
2018-06-29T20:37:21.036Z,30.00
2018-06-29T20:39:54.715Z,29.90
2018-06-29T20:42:25.793Z,30.00
2018-06-29T20:44:56.790Z,30.00
2018-06-29T20:47:27.843Z,30.20
2018-06-29T20:49:58.835Z,30.60
2018-06-29T20:52:30.022Z,31.80
2018-06-29T20:55:02.014Z,31.40
2018-06-29T20:57:33.030Z,31.70
2018-06-29T21:00:04.182Z,31.90
2018-06-29T21:02:35.249Z,31.80
2018-06-29T21:05:06.610Z,31.80
2018-06-29T21:07:37.706Z,31.70
2018-06-29T21:10:09.561Z,31.60
2018-06-29T21:12:41.349Z,31.50
2018-06-29T21:15:12.526Z,31.40
2018-06-29T21:17:43.711Z,31.80
2018-06-29T21:20:14.745Z,32.20
2018-06-29T21:22:45.766Z,32.30
2018-06-29T21:25:18.835Z,32.60
2018-06-29T21:27:50.796Z,32.80
2018-06-29T21:30:21.806Z,33.10
2018-06-29T21:32:53.921Z,33.20
2018-06-29T21:37:58.181Z,33.60
2018-06-29T21:40:30.108Z,33.60
2018-06-29T21:43:01.125Z,33.90
2018-06-29T21:45:32.265Z,34.20
2018-06-29T21:48:03.353Z,34.50
2018-06-29T21:50:34.338Z,34.60
2018-06-29T21:53:06.164Z,34.70
2018-06-29T21:55:38.280Z,34.90
2018-06-29T21:58:09.563Z,35.20
2018-06-29T22:00:42.573Z,35.10
2018-06-29T22:03:14.927Z,35.10
2018-06-29T22:05:46.777Z,35.10
2018-06-29T22:08:18.793Z,35.30
2018-06-29T22:10:50.094Z,35.40
2018-06-29T22:13:21.118Z,35.60
2018-06-29T22:15:53.893Z,35.90
2018-06-29T22:18:26.609Z,35.90
2018-06-29T22:20:57.502Z,36.00
2018-06-29T22:23:29.562Z,36.20
2018-06-29T22:28:34.572Z,36.60
2018-06-29T22:31:06.276Z,36.80
2018-06-29T22:33:38.682Z,36.90
2018-06-29T22:36:10.042Z,37.20
2018-06-29T22:38:41.395Z,37.20
2018-06-29T22:41:12.990Z,37.60
2018-06-29T22:43:45.718Z,38.00
2018-06-29T22:46:17.448Z,38.40
2018-06-29T22:48:49.174Z,38.50
2018-06-29T22:51:20.721Z,38.90
2018-06-29T22:53:52.519Z,39.00
2018-06-29T22:56:24.001Z,39.50
2018-06-29T22:58:55.850Z,39.50
2018-06-29T23:01:27.775Z,39.40
2018-06-29T23:04:00.270Z,39.40
2018-06-29T23:06:35.525Z,39.70
2018-06-29T23:09:08.762Z,40.00
2018-06-29T23:11:40.252Z,40.00
2018-06-29T23:14:11.701Z,40.10
2018-06-29T23:16:43.108Z,40.30
2018-06-29T23:19:15.345Z,40.30
2018-06-29T23:21:46.865Z,40.30
2018-06-29T23:24:18.444Z,40.50
2018-06-29T23:26:51.456Z,40.60
2018-06-29T23:29:23.651Z,40.90
2018-06-29T23:31:55.710Z,40.90
2018-06-29T23:34:27.689Z,41.10
2018-06-29T23:36:58.743Z,41.20
2018-06-29T23:39:30.138Z,41.60
2018-06-29T23:44:32.117Z,42.00
2018-06-29T23:47:03.702Z,42.20
2018-06-29T23:49:35.249Z,42.50
2018-06-29T23:52:07.315Z,42.60
2018-06-29T23:54:38.546Z,42.80
2018-06-29T23:59:39.910Z,43.30
